Terminal Aerodrome Forecast
Issued by NWS Sioux Falls, SD

Home | Current Version | Previous Version | Text Only | Print | Product List | Glossary On
Versions: 1 2 3 4 5 6 7 8 9 10 11 12 13 14 15 16
000
FTUS43 KFSD 310949 AAA
TAFSUX
TAF AMD
KSUX 310949Z 3110/0106 27007KT P6SM SCT050 BKN100
      TEMPO 3110/3112 P6SM -SHRA OVC060
     FM311400 31008KT P6SM OVC120
     FM312100 29007KT P6SM SCT250
     FM010300 VRB03KT P6SM FEW250=

USA.gov is the U.S. government's official web portal to all federal, state and local government web resources and services.